sensor_id;sensor_type;location;lat;lon;timestamp;noise_LAeq;noise_LA_min;noise_LA_max;noise_LA01;noise_LA95
63692;Laerm;49838;51.798;10.954;2024-03-23T00:53:59;30.86;27.43;38.07;;
63692;Laerm;49838;51.798;10.954;2024-03-23T00:56:31;30.07;27.61;37.51;;
63692;Laerm;49838;51.798;10.954;2024-03-23T00:59:05;30.40;27.73;38.98;;
63692;Laerm;49838;51.798;10.954;2024-03-23T01:01:40;32.45;28.32;47.64;;
63692;Laerm;49838;51.798;10.954;2024-03-23T01:04:17;30.47;27.60;36.29;;
63692;Laerm;49838;51.798;10.954;2024-03-23T01:06:50;34.25;28.52;40.12;;
63692;Laerm;49838;51.798;10.954;2024-03-23T01:09:20;30.24;27.66;39.03;;
63692;Laerm;49838;51.798;10.954;2024-03-23T01:11:49;32.01;27.95;44.43;;
63692;Laerm;49838;51.798;10.954;2024-03-23T01:14:17;32.81;28.07;43.42;;
63692;Laerm;49838;51.798;10.954;2024-03-23T01:16:43;30.52;27.78;39.98;;
63692;Laerm;49838;51.798;10.954;2024-03-23T01:19:16;34.02;27.81;51.50;;
63692;Laerm;49838;51.798;10.954;2024-03-23T01:21:45;38.73;29.15;52.90;;
63692;Laerm;49838;51.798;10.954;2024-03-23T01:24:16;34.47;28.40;47.46;;
63692;Laerm;49838;51.798;10.954;2024-03-23T01:26:44;31.82;28.03;42.04;;
63692;Laerm;49838;51.798;10.954;2024-03-23T01:29:13;35.14;29.02;46.42;;
63692;Laerm;49838;51.798;10.954;2024-03-23T01:31:40;31.06;28.55;35.93;;
63692;Laerm;49838;51.798;10.954;2024-03-23T01:34:11;32.60;29.35;42.87;;
63692;Laerm;49838;51.798;10.954;2024-03-23T01:36:39;32.06;28.53;40.33;;
63692;Laerm;49838;51.798;10.954;2024-03-23T01:39:08;36.25;28.02;67.21;;
63692;Laerm;49838;51.798;10.954;2024-03-23T01:41:40;31.33;28.18;37.77;;
63692;Laerm;49838;51.798;10.954;2024-03-23T01:44:16;33.96;28.56;45.38;;
63692;Laerm;49838;51.798;10.954;2024-03-23T01:46:44;53.51;28.18;72.16;;
63692;Laerm;49838;51.798;10.954;2024-03-23T01:49:15;33.51;27.59;43.87;;
63692;Laerm;49838;51.798;10.954;2024-03-23T01:51:48;33.87;28.55;46.38;;
63692;Laerm;49838;51.798;10.954;2024-03-23T01:54:26;32.37;27.70;41.13;;
63692;Laerm;49838;51.798;10.954;2024-03-23T01:56:54;33.84;28.74;46.87;;
63692;Laerm;49838;51.798;10.954;2024-03-23T01:59:23;31.64;27.73;42.97;;
63692;Laerm;49838;51.798;10.954;2024-03-23T02:01:50;47.95;28.24;67.81;;
63692;Laerm;49838;51.798;10.954;2024-03-23T02:04:21;31.92;27.57;43.55;;
63692;Laerm;49838;51.798;10.954;2024-03-23T02:06:50;31.48;27.62;40.06;;
63692;Laerm;49838;51.798;10.954;2024-03-23T02:09:18;32.53;27.97;40.99;;
63692;Laerm;49838;51.798;10.954;2024-03-23T02:11:54;33.71;28.12;45.20;;
63692;Laerm;49838;51.798;10.954;2024-03-23T02:14:24;33.65;28.60;44.26;;
63692;Laerm;49838;51.798;10.954;2024-03-23T02:17:00;30.73;27.94;42.49;;
63692;Laerm;49838;51.798;10.954;2024-03-23T02:19:36;31.90;28.38;42.31;;
63692;Laerm;49838;51.798;10.954;2024-03-23T02:22:03;31.16;28.02;40.53;;
63692;Laerm;49838;51.798;10.954;2024-03-23T02:24:32;32.42;27.55;40.91;;
63692;Laerm;49838;51.798;10.954;2024-03-23T02:27:05;29.20;26.93;40.05;;
63692;Laerm;49838;51.798;10.954;2024-03-23T02:29:35;30.52;27.13;39.05;;
63692;Laerm;49838;51.798;10.954;2024-03-23T02:32:01;31.66;27.79;41.07;;
63692;Laerm;49838;51.798;10.954;2024-03-23T02:34:29;33.00;27.41;44.75;;
63692;Laerm;49838;51.798;10.954;2024-03-23T02:37:01;31.80;27.90;39.68;;
63692;Laerm;49838;51.798;10.954;2024-03-23T02:39:29;31.42;27.05;44.55;;
63692;Laerm;49838;51.798;10.954;2024-03-23T02:41:58;31.64;26.92;46.11;;
63692;Laerm;49838;51.798;10.954;2024-03-23T02:44:28;29.90;27.27;36.72;;
63692;Laerm;49838;51.798;10.954;2024-03-23T02:46:58;32.58;27.38;44.63;;
63692;Laerm;49838;51.798;10.954;2024-03-23T02:49:27;29.54;27.00;39.38;;
63692;Laerm;49838;51.798;10.954;2024-03-23T02:51:54;33.26;28.51;44.06;;
63692;Laerm;49838;51.798;10.954;2024-03-23T02:54:22;33.74;27.77;44.41;;
63692;Laerm;49838;51.798;10.954;2024-03-23T02:56:54;34.99;28.97;44.35;;
63692;Laerm;49838;51.798;10.954;2024-03-23T02:59:23;31.96;27.04;45.79;;
63692;Laerm;49838;51.798;10.954;2024-03-23T03:01:53;31.42;27.45;43.19;;
63692;Laerm;49838;51.798;10.954;2024-03-23T03:04:20;34.10;28.14;43.49;;
63692;Laerm;49838;51.798;10.954;2024-03-23T03:06:50;31.64;27.40;45.63;;
63692;Laerm;49838;51.798;10.954;2024-03-23T03:09:18;34.83;27.82;46.89;;
63692;Laerm;49838;51.798;10.954;2024-03-23T03:11:45;44.76;28.79;59.99;;
63692;Laerm;49838;51.798;10.954;2024-03-23T03:14:18;46.80;29.34;61.54;;
63692;Laerm;49838;51.798;10.954;2024-03-23T03:16:53;45.84;29.64;62.85;;
63692;Laerm;49838;51.798;10.954;2024-03-23T03:19:21;41.42;32.49;58.95;;
63692;Laerm;49838;51.798;10.954;2024-03-23T03:21:51;38.32;31.09;50.13;;
63692;Laerm;49838;51.798;10.954;2024-03-23T03:24:24;40.36;29.16;58.07;;
63692;Laerm;49838;51.798;10.954;2024-03-23T03:26:55;34.06;28.11;48.86;;
63692;Laerm;49838;51.798;10.954;2024-03-23T03:29:24;34.47;28.68;47.87;;
63692;Laerm;49838;51.798;10.954;2024-03-23T03:31:53;35.44;29.53;50.11;;
63692;Laerm;49838;51.798;10.954;2024-03-23T03:34:20;45.52;33.15;52.61;;
63692;Laerm;49838;51.798;10.954;2024-03-23T03:36:48;43.15;39.50;54.80;;
63692;Laerm;49838;51.798;10.954;2024-03-23T03:39:29;50.47;38.22;67.97;;
63692;Laerm;49838;51.798;10.954;2024-03-23T03:44:54;45.75;36.73;58.20;;
63692;Laerm;49838;51.798;10.954;2024-03-23T03:47:26;39.64;34.33;53.45;;
63692;Laerm;49838;51.798;10.954;2024-03-23T03:49:59;42.50;34.60;51.44;;
63692;Laerm;49838;51.798;10.954;2024-03-23T03:52:49;44.18;38.93;54.95;;
63692;Laerm;49838;51.798;10.954;2024-03-23T03:55:33;41.33;34.52;53.02;;
63692;Laerm;49838;51.798;10.954;2024-03-23T03:58:04;45.61;40.23;54.26;;
63692;Laerm;49838;51.798;10.954;2024-03-23T04:00:31;41.96;36.33;53.87;;
63692;Laerm;49838;51.798;10.954;2024-03-23T04:03:00;56.64;37.60;78.64;;
63692;Laerm;49838;51.798;10.954;2024-03-23T04:08:28;44.13;38.96;55.83;;
63692;Laerm;49838;51.798;10.954;2024-03-23T04:10:57;45.16;39.36;60.60;;
63692;Laerm;49838;51.798;10.954;2024-03-23T04:13:27;44.88;39.03;54.77;;
63692;Laerm;49838;51.798;10.954;2024-03-23T04:15:54;44.47;37.97;52.85;;
63692;Laerm;49838;51.798;10.954;2024-03-23T04:18:33;45.41;40.92;53.66;;
63692;Laerm;49838;51.798;10.954;2024-03-23T04:21:02;56.74;41.32;76.81;;
63692;Laerm;49838;51.798;10.954;2024-03-23T04:23:30;47.36;41.92;66.15;;
63692;Laerm;49838;51.798;10.954;2024-03-23T04:26:03;51.32;42.39;66.67;;
63692;Laerm;49838;51.798;10.954;2024-03-23T04:28:29;50.70;41.70;65.81;;
63692;Laerm;49838;51.798;10.954;2024-03-23T04:31:03;52.75;42.79;66.13;;
63692;Laerm;49838;51.798;10.954;2024-03-23T04:33:30;50.67;43.56;66.27;;
63692;Laerm;49838;51.798;10.954;2024-03-23T04:35:59;48.82;43.84;60.86;;
63692;Laerm;49838;51.798;10.954;2024-03-23T04:38:26;49.55;43.38;61.37;;
63692;Laerm;49838;51.798;10.954;2024-03-23T04:40:54;55.49;44.49;74.29;;
63692;Laerm;49838;51.798;10.954;2024-03-23T04:43:26;49.39;45.46;58.03;;
63692;Laerm;49838;51.798;10.954;2024-03-23T04:45:54;53.13;45.08;68.04;;
63692;Laerm;49838;51.798;10.954;2024-03-23T04:48:22;60.60;45.73;79.51;;
63692;Laerm;49838;51.798;10.954;2024-03-23T04:50:55;51.01;47.44;58.28;;
63692;Laerm;49838;51.798;10.954;2024-03-23T04:53:25;62.95;47.82;80.33;;
63692;Laerm;49838;51.798;10.954;2024-03-23T04:55:59;57.01;45.94;80.11;;
63692;Laerm;49838;51.798;10.954;2024-03-23T04:58:29;59.53;45.45;84.89;;
63692;Laerm;49838;51.798;10.954;2024-03-23T05:00:57;50.51;46.31;55.93;;
63692;Laerm;49838;51.798;10.954;2024-03-23T05:03:24;48.00;43.83;55.46;;
63692;Laerm;49838;51.798;10.954;2024-03-23T05:05:52;49.00;45.11;56.61;;
63692;Laerm;49838;51.798;10.954;2024-03-23T05:08:19;48.84;45.08;58.37;;
63692;Laerm;49838;51.798;10.954;2024-03-23T05:10:57;50.84;44.55;65.17;;
63692;Laerm;49838;51.798;10.954;2024-03-23T05:13:26;53.11;45.46;74.10;;
63692;Laerm;49838;51.798;10.954;2024-03-23T05:15:55;54.48;45.72;70.48;;
63692;Laerm;49838;51.798;10.954;2024-03-23T05:18:34;58.20;44.93;81.11;;
63692;Laerm;49838;51.798;10.954;2024-03-23T05:21:02;49.57;44.91;56.69;;
63692;Laerm;49838;51.798;10.954;2024-03-23T05:23:29;52.58;45.70;68.50;;
63692;Laerm;49838;51.798;10.954;2024-03-23T05:26:13;48.84;44.45;57.91;;
63692;Laerm;49838;51.798;10.954;2024-03-23T05:28:49;58.59;46.69;78.16;;
63692;Laerm;49838;51.798;10.954;2024-03-23T05:31:29;49.26;44.82;56.72;;
63692;Laerm;49838;51.798;10.954;2024-03-23T05:33:56;48.14;44.60;58.79;;
63692;Laerm;49838;51.798;10.954;2024-03-23T05:36:24;63.08;45.10;84.72;;
63692;Laerm;49838;51.798;10.954;2024-03-23T05:38:51;59.54;45.04;77.33;;
63692;Laerm;49838;51.798;10.954;2024-03-23T05:41:20;49.94;45.85;58.31;;
63692;Laerm;49838;51.798;10.954;2024-03-23T05:43:53;49.25;44.71;58.66;;
63692;Laerm;49838;51.798;10.954;2024-03-23T05:46:21;59.20;45.08;79.98;;
63692;Laerm;49838;51.798;10.954;2024-03-23T05:48:47;59.07;46.64;77.10;;
63692;Laerm;49838;51.798;10.954;2024-03-23T05:51:16;56.57;44.99;74.93;;
63692;Laerm;49838;51.798;10.954;2024-03-23T05:53:44;60.67;45.72;77.33;;
63692;Laerm;49838;51.798;10.954;2024-03-23T05:56:13;48.90;46.03;59.35;;
63692;Laerm;49838;51.798;10.954;2024-03-23T05:58:51;56.98;43.98;77.05;;
63692;Laerm;49838;51.798;10.954;2024-03-23T06:01:41;46.22;42.17;56.40;;
63692;Laerm;49838;51.798;10.954;2024-03-23T06:04:09;46.28;41.74;53.84;;
63692;Laerm;49838;51.798;10.954;2024-03-23T06:06:45;45.43;41.43;57.62;;
63692;Laerm;49838;51.798;10.954;2024-03-23T06:09:12;58.20;41.99;78.41;;
63692;Laerm;49838;51.798;10.954;2024-03-23T06:11:41;57.02;41.86;76.21;;
63692;Laerm;49838;51.798;10.954;2024-03-23T06:14:19;54.77;42.61;72.20;;
63692;Laerm;49838;51.798;10.954;2024-03-23T06:16:45;45.34;41.26;62.17;;
63692;Laerm;49838;51.798;10.954;2024-03-23T06:19:14;57.04;41.26;77.57;;
63692;Laerm;49838;51.798;10.954;2024-03-23T06:21:43;46.01;41.38;61.79;;
63692;Laerm;49838;51.798;10.954;2024-03-23T06:24:13;51.06;40.66;70.10;;
63692;Laerm;49838;51.798;10.954;2024-03-23T06:26:42;45.38;41.70;56.16;;
63692;Laerm;49838;51.798;10.954;2024-03-23T06:29:10;46.17;42.02;64.66;;
63692;Laerm;49838;51.798;10.954;2024-03-23T06:31:38;57.06;43.33;80.35;;
63692;Laerm;49838;51.798;10.954;2024-03-23T06:34:05;55.39;44.23;74.22;;
63692;Laerm;49838;51.798;10.954;2024-03-23T06:36:31;58.75;44.38;79.01;;
63692;Laerm;49838;51.798;10.954;2024-03-23T06:38:58;48.76;44.88;61.68;;
63692;Laerm;49838;51.798;10.954;2024-03-23T06:41:25;58.30;43.27;76.72;;
63692;Laerm;49838;51.798;10.954;2024-03-23T06:43:53;56.16;42.86;77.25;;
63692;Laerm;49838;51.798;10.954;2024-03-23T06:46:19;60.97;42.81;80.54;;
63692;Laerm;49838;51.798;10.954;2024-03-23T06:48:48;58.99;41.91;74.72;;
63692;Laerm;49838;51.798;10.954;2024-03-23T06:51:14;64.12;43.02;80.22;;
63692;Laerm;49838;51.798;10.954;2024-03-23T06:53:41;62.74;44.04;81.43;;
63692;Laerm;49838;51.798;10.954;2024-03-23T06:56:07;60.66;45.28;79.24;;
63692;Laerm;49838;51.798;10.954;2024-03-23T06:58:35;63.02;46.00;83.85;;
63692;Laerm;49838;51.798;10.954;2024-03-23T07:01:01;50.61;47.18;57.87;;
63692;Laerm;49838;51.798;10.954;2024-03-23T07:03:29;58.77;46.61;77.58;;
63692;Laerm;49838;51.798;10.954;2024-03-23T07:05:58;63.86;47.46;81.25;;
63692;Laerm;49838;51.798;10.954;2024-03-23T07:08:26;60.26;47.48;78.91;;
63692;Laerm;49838;51.798;10.954;2024-03-23T07:10:52;62.52;45.87;80.44;;
63692;Laerm;49838;51.798;10.954;2024-03-23T07:13:20;57.06;45.66;74.36;;
63692;Laerm;49838;51.798;10.954;2024-03-23T07:15:51;61.84;44.44;81.94;;
63692;Laerm;49838;51.798;10.954;2024-03-23T07:18:19;62.79;43.29;79.49;;
63692;Laerm;49838;51.798;10.954;2024-03-23T07:20:52;60.54;43.28;78.18;;
63692;Laerm;49838;51.798;10.954;2024-03-23T07:23:20;60.59;41.74;81.24;;
63692;Laerm;49838;51.798;10.954;2024-03-23T07:25:56;61.03;42.40;79.78;;
63692;Laerm;49838;51.798;10.954;2024-03-23T07:28:23;53.07;40.62;75.12;;
63692;Laerm;49838;51.798;10.954;2024-03-23T07:31:01;62.58;40.31;80.85;;
63692;Laerm;49838;51.798;10.954;2024-03-23T07:33:29;57.57;40.70;74.12;;
63692;Laerm;49838;51.798;10.954;2024-03-23T07:35:55;62.71;40.11;77.40;;
63692;Laerm;49838;51.798;10.954;2024-03-23T07:38:25;57.27;40.47;74.94;;
63692;Laerm;49838;51.798;10.954;2024-03-23T07:40:52;64.42;41.45;79.30;;
63692;Laerm;49838;51.798;10.954;2024-03-23T07:43:22;64.96;40.59;79.77;;
63692;Laerm;49838;51.798;10.954;2024-03-23T07:45:51;64.17;43.00;78.65;;
63692;Laerm;49838;51.798;10.954;2024-03-23T07:48:21;58.45;41.13;81.83;;
63692;Laerm;49838;51.798;10.954;2024-03-23T07:50:57;64.99;42.58;84.80;;
63692;Laerm;49838;51.798;10.954;2024-03-23T07:53:25;61.76;40.90;83.07;;
63692;Laerm;49838;51.798;10.954;2024-03-23T07:55:54;62.15;42.35;77.53;;
63692;Laerm;49838;51.798;10.954;2024-03-23T07:58:22;62.64;45.04;80.10;;
63692;Laerm;49838;51.798;10.954;2024-03-23T08:00:48;63.37;42.44;79.00;;
63692;Laerm;49838;51.798;10.954;2024-03-23T08:03:15;64.23;43.80;82.69;;
63692;Laerm;49838;51.798;10.954;2024-03-23T08:05:42;55.63;42.12;79.49;;
63692;Laerm;49838;51.798;10.954;2024-03-23T08:08:09;62.53;42.26;85.41;;
63692;Laerm;49838;51.798;10.954;2024-03-23T08:10:47;57.35;42.12;74.65;;
63692;Laerm;49838;51.798;10.954;2024-03-23T08:13:14;65.25;45.39;86.32;;
63692;Laerm;49838;51.798;10.954;2024-03-23T08:15:41;61.26;41.94;79.30;;
63692;Laerm;49838;51.798;10.954;2024-03-23T08:18:09;62.88;41.58;79.99;;
63692;Laerm;49838;51.798;10.954;2024-03-23T08:20:35;62.01;41.40;80.58;;
63692;Laerm;49838;51.798;10.954;2024-03-23T08:23:03;63.40;44.86;76.84;;
63692;Laerm;49838;51.798;10.954;2024-03-23T08:25:31;60.17;44.92;76.66;;
63692;Laerm;49838;51.798;10.954;2024-03-23T08:27:59;63.18;46.49;79.47;;
63692;Laerm;49838;51.798;10.954;2024-03-23T08:30:28;65.19;47.39;80.32;;
63692;Laerm;49838;51.798;10.954;2024-03-23T08:32:55;62.17;45.15;80.69;;
63692;Laerm;49838;51.798;10.954;2024-03-23T08:35:22;67.10;44.55;82.13;;
63692;Laerm;49838;51.798;10.954;2024-03-23T08:37:49;58.52;42.29;78.33;;
63692;Laerm;49838;51.798;10.954;2024-03-23T08:40:15;61.35;41.13;80.72;;
63692;Laerm;49838;51.798;10.954;2024-03-23T08:42:42;59.47;41.29;77.76;;
63692;Laerm;49838;51.798;10.954;2024-03-23T08:45:11;59.88;39.84;75.43;;
63692;Laerm;49838;51.798;10.954;2024-03-23T08:47:38;57.76;40.28;75.03;;
63692;Laerm;49838;51.798;10.954;2024-03-23T08:50:05;51.07;40.04;68.13;;
63692;Laerm;49838;51.798;10.954;2024-03-23T08:52:32;60.36;39.03;77.64;;
63692;Laerm;49838;51.798;10.954;2024-03-23T08:54:59;58.72;39.73;74.72;;
63692;Laerm;49838;51.798;10.954;2024-03-23T08:57:27;55.57;40.46;71.27;;
63692;Laerm;49838;51.798;10.954;2024-03-23T08:59:53;60.01;40.07;74.55;;
63692;Laerm;49838;51.798;10.954;2024-03-23T09:02:22;60.18;39.13;79.18;;
63692;Laerm;49838;51.798;10.954;2024-03-23T09:04:48;56.33;40.28;72.28;;
63692;Laerm;49838;51.798;10.954;2024-03-23T09:07:15;61.78;39.81;74.39;;
63692;Laerm;49838;51.798;10.954;2024-03-23T09:09:42;59.99;40.76;80.38;;
63692;Laerm;49838;51.798;10.954;2024-03-23T09:12:09;58.29;42.61;73.31;;
63692;Laerm;49838;51.798;10.954;2024-03-23T09:14:35;63.96;44.30;76.08;;
63692;Laerm;49838;51.798;10.954;2024-03-23T09:17:03;56.04;38.34;72.68;;
63692;Laerm;49838;51.798;10.954;2024-03-23T09:19:30;59.44;39.56;75.27;;
63692;Laerm;49838;51.798;10.954;2024-03-23T09:21:58;58.72;40.12;77.47;;
63692;Laerm;49838;51.798;10.954;2024-03-23T09:24:24;60.41;40.12;77.93;;
63692;Laerm;49838;51.798;10.954;2024-03-23T09:26:51;60.76;38.64;76.43;;
63692;Laerm;49838;51.798;10.954;2024-03-23T09:29:18;66.06;39.43;83.06;;
63692;Laerm;49838;51.798;10.954;2024-03-23T09:31:46;62.20;40.93;77.01;;
63692;Laerm;49838;51.798;10.954;2024-03-23T09:34:12;60.44;40.02;76.25;;
63692;Laerm;49838;51.798;10.954;2024-03-23T09:36:41;59.40;39.09;74.83;;
63692;Laerm;49838;51.798;10.954;2024-03-23T09:39:07;60.55;39.11;75.19;;
63692;Laerm;49838;51.798;10.954;2024-03-23T09:41:35;60.31;39.22;75.47;;
63692;Laerm;49838;51.798;10.954;2024-03-23T09:44:01;60.04;37.08;73.53;;
63692;Laerm;49838;51.798;10.954;2024-03-23T09:46:31;52.64;37.19;69.57;;
63692;Laerm;49838;51.798;10.954;2024-03-23T09:49:00;49.89;36.55;64.68;;
63692;Laerm;49838;51.798;10.954;2024-03-23T09:51:30;51.79;37.41;70.54;;
63692;Laerm;49838;51.798;10.954;2024-03-23T09:53:58;59.94;38.83;74.80;;
63692;Laerm;49838;51.798;10.954;2024-03-23T09:56:25;55.25;37.51;68.81;;
63692;Laerm;49838;51.798;10.954;2024-03-23T09:58:51;57.08;42.88;70.13;;
63692;Laerm;49838;51.798;10.954;2024-03-23T10:01:19;59.67;43.93;74.10;;
63692;Laerm;49838;51.798;10.954;2024-03-23T10:03:45;52.18;40.41;67.30;;
63692;Laerm;49838;51.798;10.954;2024-03-23T10:06:13;62.12;44.52;73.82;;
63692;Laerm;49838;51.798;10.954;2024-03-23T10:08:39;59.59;47.39;74.53;;
63692;Laerm;49838;51.798;10.954;2024-03-23T10:11:15;64.80;47.17;81.33;;
63692;Laerm;49838;51.798;10.954;2024-03-23T10:13:43;72.00;63.64;82.35;;
63692;Laerm;49838;51.798;10.954;2024-03-23T10:16:12;68.85;46.75;77.99;;
63692;Laerm;49838;51.798;10.954;2024-03-23T10:18:46;62.39;44.95;77.32;;
63692;Laerm;49838;51.798;10.954;2024-03-23T10:21:14;51.02;36.97;71.71;;
63692;Laerm;49838;51.798;10.954;2024-03-23T10:23:41;57.17;38.90;77.83;;
63692;Laerm;49838;51.798;10.954;2024-03-23T10:26:14;63.28;41.08;74.22;;
63692;Laerm;49838;51.798;10.954;2024-03-23T10:28:52;56.72;39.30;72.58;;
63692;Laerm;49838;51.798;10.954;2024-03-23T10:31:20;56.42;38.40;73.06;;
63692;Laerm;49838;51.798;10.954;2024-03-23T10:33:47;62.58;38.37;80.97;;
63692;Laerm;49838;51.798;10.954;2024-03-23T10:36:16;58.81;38.65;78.60;;
63692;Laerm;49838;51.798;10.954;2024-03-23T10:38:44;57.27;39.99;72.19;;
63692;Laerm;49838;51.798;10.954;2024-03-23T10:41:11;56.69;40.08;72.11;;
63692;Laerm;49838;51.798;10.954;2024-03-23T10:43:39;56.41;37.27;74.07;;
63692;Laerm;49838;51.798;10.954;2024-03-23T10:46:06;57.90;37.62;74.84;;
63692;Laerm;49838;51.798;10.954;2024-03-23T10:48:35;61.79;47.89;78.84;;
63692;Laerm;49838;51.798;10.954;2024-03-23T10:51:03;50.53;36.95;73.55;;
63692;Laerm;49838;51.798;10.954;2024-03-23T10:53:32;59.15;38.32;74.88;;
63692;Laerm;49838;51.798;10.954;2024-03-23T10:56:00;57.67;38.65;72.15;;
63692;Laerm;49838;51.798;10.954;2024-03-23T10:58:30;54.23;37.47;70.54;;
63692;Laerm;49838;51.798;10.954;2024-03-23T11:00:59;60.64;39.61;71.61;;
63692;Laerm;49838;51.798;10.954;2024-03-23T11:03:35;55.88;38.58;69.84;;
63692;Laerm;49838;51.798;10.954;2024-03-23T11:06:04;60.68;40.74;78.21;;
63692;Laerm;49838;51.798;10.954;2024-03-23T11:08:34;59.00;38.52;79.30;;
63692;Laerm;49838;51.798;10.954;2024-03-23T11:11:15;54.78;37.43;69.23;;
63692;Laerm;49838;51.798;10.954;2024-03-23T11:13:43;59.72;39.28;75.07;;
63692;Laerm;49838;51.798;10.954;2024-03-23T11:16:15;56.46;41.23;71.30;;
63692;Laerm;49838;51.798;10.954;2024-03-23T11:18:43;59.44;39.78;82.64;;
63692;Laerm;49838;51.798;10.954;2024-03-23T11:24:15;56.85;41.05;72.74;;
63692;Laerm;49838;51.798;10.954;2024-03-23T11:26:42;62.27;45.41;77.24;;
63692;Laerm;49838;51.798;10.954;2024-03-23T11:29:09;62.26;45.18;73.91;;
63692;Laerm;49838;51.798;10.954;2024-03-23T11:31:38;59.86;40.43;81.49;;
63692;Laerm;49838;51.798;10.954;2024-03-23T11:34:05;66.17;46.48;85.66;;
63692;Laerm;49838;51.798;10.954;2024-03-23T11:36:32;59.72;45.44;76.08;;
63692;Laerm;49838;51.798;10.954;2024-03-23T11:38:58;63.35;46.94;76.82;;
63692;Laerm;49838;51.798;10.954;2024-03-23T11:41:26;64.13;41.77;82.42;;
63692;Laerm;49838;51.798;10.954;2024-03-23T11:43:52;61.39;38.39;80.18;;
63692;Laerm;49838;51.798;10.954;2024-03-23T11:46:22;64.43;39.84;82.86;;
63692;Laerm;49838;51.798;10.954;2024-03-23T11:48:50;62.37;36.85;78.68;;
63692;Laerm;49838;51.798;10.954;2024-03-23T11:51:18;57.12;35.97;75.21;;
63692;Laerm;49838;51.798;10.954;2024-03-23T11:53:44;62.65;37.31;83.26;;
63692;Laerm;49838;51.798;10.954;2024-03-23T11:56:12;58.78;37.58;78.58;;
63692;Laerm;49838;51.798;10.954;2024-03-23T11:58:38;61.47;38.59;80.32;;
63692;Laerm;49838;51.798;10.954;2024-03-23T12:01:10;56.60;36.91;76.00;;
63692;Laerm;49838;51.798;10.954;2024-03-23T12:03:36;60.34;37.91;75.35;;
63692;Laerm;49838;51.798;10.954;2024-03-23T12:06:05;57.59;37.13;74.98;;
63692;Laerm;49838;51.798;10.954;2024-03-23T12:08:34;55.48;36.32;79.46;;
63692;Laerm;49838;51.798;10.954;2024-03-23T12:11:05;61.01;36.38;76.27;;
63692;Laerm;49838;51.798;10.954;2024-03-23T12:13:33;57.06;38.90;73.57;;
63692;Laerm;49838;51.798;10.954;2024-03-23T12:16:09;58.64;38.43;76.69;;
63692;Laerm;49838;51.798;10.954;2024-03-23T12:18:36;52.99;36.54;76.20;;
63692;Laerm;49838;51.798;10.954;2024-03-23T12:21:05;58.78;39.80;75.45;;
63692;Laerm;49838;51.798;10.954;2024-03-23T12:23:32;53.46;34.85;71.54;;
63692;Laerm;49838;51.798;10.954;2024-03-23T12:25:59;46.86;34.17;63.92;;
63692;Laerm;49838;51.798;10.954;2024-03-23T12:28:26;56.12;35.04;71.97;;
63692;Laerm;49838;51.798;10.954;2024-03-23T12:30:54;40.35;34.69;49.57;;
63692;Laerm;49838;51.798;10.954;2024-03-23T12:33:20;62.99;35.89;79.72;;
63692;Laerm;49838;51.798;10.954;2024-03-23T12:35:48;56.51;36.23;70.03;;
63692;Laerm;49838;51.798;10.954;2024-03-23T12:38:16;61.01;38.90;74.41;;
63692;Laerm;49838;51.798;10.954;2024-03-23T12:40:46;59.50;37.72;74.37;;
63692;Laerm;49838;51.798;10.954;2024-03-23T12:43:13;56.90;38.62;71.52;;
63692;Laerm;49838;51.798;10.954;2024-03-23T12:45:40;58.80;38.97;72.03;;
63692;Laerm;49838;51.798;10.954;2024-03-23T12:48:07;58.75;41.10;73.28;;
63692;Laerm;49838;51.798;10.954;2024-03-23T12:50:34;60.10;40.66;76.38;;
63692;Laerm;49838;51.798;10.954;2024-03-23T12:53:01;63.77;47.99;79.68;;
63692;Laerm;49838;51.798;10.954;2024-03-23T12:55:29;57.39;44.23;70.46;;
63692;Laerm;49838;51.798;10.954;2024-03-23T12:57:56;53.15;39.18;70.12;;
63692;Laerm;49838;51.798;10.954;2024-03-23T13:00:23;55.57;37.92;69.76;;
63692;Laerm;49838;51.798;10.954;2024-03-23T13:02:49;57.78;38.63;75.51;;
63692;Laerm;49838;51.798;10.954;2024-03-23T13:05:19;57.25;36.04;73.08;;
63692;Laerm;49838;51.798;10.954;2024-03-23T13:07:45;58.87;36.07;76.12;;
63692;Laerm;49838;51.798;10.954;2024-03-23T13:10:12;53.79;36.98;70.11;;
63692;Laerm;49838;51.798;10.954;2024-03-23T13:12:41;44.13;35.46;60.99;;
63692;Laerm;49838;51.798;10.954;2024-03-23T13:15:09;58.04;36.97;73.99;;
63692;Laerm;49838;51.798;10.954;2024-03-23T13:17:35;56.44;37.09;75.16;;
63692;Laerm;49838;51.798;10.954;2024-03-23T13:20:03;58.62;38.36;70.63;;
63692;Laerm;49838;51.798;10.954;2024-03-23T13:22:30;50.22;36.35;66.78;;
63692;Laerm;49838;51.798;10.954;2024-03-23T13:24:57;53.76;36.28;69.58;;
63692;Laerm;49838;51.798;10.954;2024-03-23T13:27:25;55.61;37.68;71.94;;
63692;Laerm;49838;51.798;10.954;2024-03-23T13:29:54;59.31;36.50;74.91;;
63692;Laerm;49838;51.798;10.954;2024-03-23T13:32:21;64.08;36.33;82.93;;
63692;Laerm;49838;51.798;10.954;2024-03-23T13:34:48;56.97;34.97;71.33;;
63692;Laerm;49838;51.798;10.954;2024-03-23T13:37:16;53.34;37.03;69.95;;
63692;Laerm;49838;51.798;10.954;2024-03-23T13:39:43;57.11;36.73;77.91;;
63692;Laerm;49838;51.798;10.954;2024-03-23T13:42:10;58.89;40.80;81.36;;
63692;Laerm;49838;51.798;10.954;2024-03-23T13:44:38;60.39;46.19;79.46;;
63692;Laerm;49838;51.798;10.954;2024-03-23T13:47:06;56.08;41.73;71.81;;
63692;Laerm;49838;51.798;10.954;2024-03-23T13:49:34;60.67;40.33;75.09;;
63692;Laerm;49838;51.798;10.954;2024-03-23T13:52:02;58.05;40.42;71.86;;
63692;Laerm;49838;51.798;10.954;2024-03-23T13:54:29;61.82;40.18;75.91;;
63692;Laerm;49838;51.798;10.954;2024-03-23T13:56:56;59.84;38.76;71.35;;
63692;Laerm;49838;51.798;10.954;2024-03-23T13:59:23;60.76;39.80;74.42;;
63692;Laerm;49838;51.798;10.954;2024-03-23T14:01:50;59.18;42.42;77.72;;
63692;Laerm;49838;51.798;10.954;2024-03-23T14:04:20;55.83;37.38;70.85;;
63692;Laerm;49838;51.798;10.954;2024-03-23T14:06:47;57.14;37.09;73.26;;
63692;Laerm;49838;51.798;10.954;2024-03-23T14:09:14;59.07;42.14;80.20;;
63692;Laerm;49838;51.798;10.954;2024-03-23T14:11:41;52.96;39.04;71.40;;
63692;Laerm;49838;51.798;10.954;2024-03-23T14:14:10;56.67;36.93;75.05;;
63692;Laerm;49838;51.798;10.954;2024-03-23T14:16:36;57.51;38.37;71.02;;
63692;Laerm;49838;51.798;10.954;2024-03-23T14:19:04;54.15;37.03;67.72;;
63692;Laerm;49838;51.798;10.954;2024-03-23T14:21:33;51.92;37.86;73.43;;
63692;Laerm;49838;51.798;10.954;2024-03-23T14:24:01;58.97;39.03;74.75;;
63692;Laerm;49838;51.798;10.954;2024-03-23T14:26:28;58.86;41.33;73.86;;
63692;Laerm;49838;51.798;10.954;2024-03-23T14:28:55;55.26;42.70;72.60;;
63692;Laerm;49838;51.798;10.954;2024-03-23T14:31:24;58.46;39.88;76.30;;
63692;Laerm;49838;51.798;10.954;2024-03-23T14:33:52;57.18;40.25;71.78;;
63692;Laerm;49838;51.798;10.954;2024-03-23T14:36:18;54.84;40.50;78.53;;
63692;Laerm;49838;51.798;10.954;2024-03-23T14:38:49;55.20;39.66;71.85;;
63692;Laerm;49838;51.798;10.954;2024-03-23T14:41:15;59.23;38.77;72.35;;
63692;Laerm;49838;51.798;10.954;2024-03-23T14:43:43;57.22;37.39;74.36;;